createdAt,value
2023-03-21T00:01:50.235Z,1.67
2023-03-21T00:04:16.972Z,1.89
2023-03-21T00:06:43.646Z,2.13
2023-03-21T00:09:10.316Z,2.19
2023-03-21T00:11:36.963Z,1.99
2023-03-21T00:14:03.590Z,1.98
2023-03-21T00:16:39.264Z,1.71
2023-03-21T00:19:07.446Z,1.83
2023-03-21T00:21:59.153Z,1.70
2023-03-21T00:24:20.713Z,1.70
2023-03-21T00:26:47.452Z,1.93
2023-03-21T00:29:14.245Z,1.96
2023-03-21T00:31:40.894Z,1.85
2023-03-21T00:34:07.566Z,1.73
2023-03-21T00:36:34.272Z,1.94
2023-03-21T00:39:00.994Z,1.99
2023-03-21T00:41:41.453Z,1.84
2023-03-21T00:44:09.628Z,1.78
2023-03-21T00:46:47.006Z,1.67
2023-03-21T00:49:18.237Z,1.66
2023-03-21T00:51:44.858Z,1.60
2023-03-21T00:54:12.454Z,1.76
2023-03-21T00:56:39.082Z,1.64
2023-03-21T00:59:05.725Z,1.46
2023-03-21T01:01:32.460Z,1.39
2023-03-21T01:03:59.476Z,1.64
2023-03-21T01:06:26.099Z,1.60
2023-03-21T01:08:53.689Z,1.86
2023-03-21T01:11:22.587Z,1.60
2023-03-21T01:14:07.130Z,1.64
2023-03-21T01:16:36.193Z,1.57
2023-03-21T01:19:06.924Z,1.46
2023-03-21T01:21:33.795Z,1.59
2023-03-21T01:24:00.427Z,1.67
2023-03-21T01:26:27.086Z,1.44
2023-03-21T01:28:53.710Z,1.51
2023-03-21T01:31:20.360Z,1.74
2023-03-21T01:33:47.027Z,1.65
2023-03-21T01:36:25.253Z,1.62
2023-03-21T01:38:52.338Z,1.58
2023-03-21T01:41:42.608Z,1.57
2023-03-21T01:44:17.093Z,1.52
2023-03-21T01:46:57.437Z,1.46
2023-03-21T01:49:39.080Z,1.40
2023-03-21T01:52:13.182Z,1.32
2023-03-21T01:54:42.069Z,1.37
2023-03-21T01:57:11.085Z,1.31
2023-03-21T01:59:42.923Z,1.42
2023-03-21T02:02:12.322Z,1.37
2023-03-21T02:04:38.965Z,1.61
2023-03-21T02:07:11.559Z,1.57
2023-03-21T02:09:38.348Z,1.55
2023-03-21T02:12:04.980Z,1.49
2023-03-21T02:14:32.526Z,1.59
2023-03-21T02:17:24.045Z,1.56
2023-03-21T02:20:17.590Z,1.40
2023-03-21T02:23:09.348Z,1.37
2023-03-21T02:25:53.535Z,1.50
2023-03-21T02:28:29.892Z,1.63
2023-03-21T02:31:23.417Z,1.37
2023-03-21T02:34:12.392Z,1.62
2023-03-21T02:36:44.985Z,1.60
2023-03-21T02:39:23.845Z,1.57
2023-03-21T02:41:55.142Z,1.42
2023-03-21T02:44:30.819Z,1.55
2023-03-21T02:47:13.452Z,1.47
2023-03-21T02:50:06.641Z,1.63
2023-03-21T02:52:39.273Z,1.70
2023-03-21T02:55:11.868Z,1.72
2023-03-21T02:57:43.261Z,1.55
2023-03-21T03:00:16.594Z,1.56
2023-03-21T03:02:43.898Z,1.58
2023-03-21T03:05:37.368Z,1.55
2023-03-21T03:08:43.279Z,1.31
2023-03-21T03:11:29.729Z,2.16
2023-03-21T03:15:02.217Z,1.56
2023-03-21T03:17:51.343Z,1.40
2023-03-21T03:20:19.955Z,1.53
2023-03-21T03:22:52.428Z,1.61
2023-03-21T03:26:02.588Z,1.59
2023-03-21T03:28:31.692Z,1.45
2023-03-21T03:31:08.642Z,1.54
2023-03-21T03:33:36.507Z,1.46
2023-03-21T03:36:06.398Z,1.65
2023-03-21T03:38:33.521Z,1.56
2023-03-21T03:41:02.578Z,1.55
2023-03-21T03:43:35.095Z,1.54
2023-03-21T03:46:06.335Z,1.63
2023-03-21T03:48:34.560Z,1.53
2023-03-21T03:51:04.015Z,1.53
2023-03-21T03:53:37.237Z,1.49
2023-03-21T03:56:03.904Z,1.44
2023-03-21T03:58:39.750Z,1.60
2023-03-21T04:01:11.741Z,1.45
2023-03-21T04:03:48.370Z,1.59
2023-03-21T04:06:17.208Z,1.40
2023-03-21T04:08:43.871Z,1.44
2023-03-21T04:11:12.564Z,1.42
2023-03-21T04:13:39.194Z,1.50
2023-03-21T04:16:06.147Z,1.69
2023-03-21T04:18:32.801Z,1.40
2023-03-21T04:23:26.104Z,1.39
2023-03-21T04:25:56.736Z,1.33
2023-03-21T04:28:23.560Z,1.37
2023-03-21T04:31:01.443Z,1.24
2023-03-21T04:33:31.621Z,1.51
2023-03-21T04:35:58.383Z,1.54
2023-03-21T04:38:25.514Z,1.47
2023-03-21T04:40:52.448Z,1.37
2023-03-21T04:43:19.127Z,1.40
2023-03-21T04:45:45.783Z,1.51
2023-03-21T04:48:12.463Z,1.40
2023-03-21T04:50:39.262Z,1.43
2023-03-21T04:53:06.026Z,1.48
2023-03-21T04:55:32.665Z,1.43
2023-03-21T04:57:59.322Z,1.51
2023-03-21T05:00:25.965Z,1.21
2023-03-21T05:02:52.594Z,1.24
2023-03-21T05:05:19.235Z,1.50
2023-03-21T05:07:45.857Z,1.43
2023-03-21T05:10:12.540Z,1.64
2023-03-21T05:12:39.253Z,1.47
2023-03-21T05:15:06.565Z,1.56
2023-03-21T05:17:33.215Z,1.83
2023-03-21T05:19:59.869Z,2.09
2023-03-21T05:22:26.510Z,1.89
2023-03-21T05:24:53.152Z,2.07
2023-03-21T05:27:20.175Z,1.93
2023-03-21T05:29:46.832Z,1.85
2023-03-21T05:32:13.550Z,1.77
2023-03-21T05:34:40.168Z,1.94
2023-03-21T05:37:06.809Z,1.66
2023-03-21T05:39:33.482Z,1.96
2023-03-21T05:42:00.150Z,1.65
2023-03-21T05:44:27.020Z,1.44
2023-03-21T05:46:53.643Z,1.56
2023-03-21T05:49:20.284Z,1.56
2023-03-21T05:51:46.921Z,1.53
2023-03-21T05:54:13.553Z,1.56
2023-03-21T05:56:40.238Z,1.53
2023-03-21T05:59:06.878Z,1.66
2023-03-21T06:01:33.492Z,1.64
2023-03-21T06:04:00.263Z,1.62
2023-03-21T06:06:26.968Z,1.70
2023-03-21T06:08:53.603Z,1.81
2023-03-21T06:11:24.149Z,1.98
2023-03-21T06:13:50.828Z,1.79
2023-03-21T06:16:17.637Z,2.03
2023-03-21T06:21:11.010Z,1.87
2023-03-21T06:23:37.645Z,2.29
2023-03-21T06:26:04.469Z,2.29
2023-03-21T06:28:31.405Z,2.23
2023-03-21T06:30:58.091Z,2.21
2023-03-21T06:33:24.996Z,2.22
2023-03-21T06:35:55.602Z,2.46
2023-03-21T06:38:22.264Z,2.50
2023-03-21T06:40:49.009Z,2.44
2023-03-21T06:43:15.658Z,2.16
2023-03-21T06:45:42.501Z,2.00
2023-03-21T06:48:09.498Z,2.08
2023-03-21T06:50:36.204Z,2.04
2023-03-21T06:53:02.847Z,2.26
2023-03-21T06:55:29.524Z,1.94
2023-03-21T06:57:56.606Z,2.02
2023-03-21T07:00:23.776Z,2.19
2023-03-21T07:02:51.307Z,2.13
2023-03-21T07:05:18.092Z,2.27
2023-03-21T07:07:44.799Z,2.31
2023-03-21T07:10:11.675Z,2.33
2023-03-21T07:12:38.317Z,2.39
2023-03-21T07:15:05.688Z,2.33
2023-03-21T07:17:32.371Z,2.20
2023-03-21T07:19:59.537Z,2.36
2023-03-21T07:22:26.247Z,2.61
2023-03-21T07:25:03.990Z,2.78
2023-03-21T07:27:31.612Z,2.98
2023-03-21T07:29:58.250Z,3.01
2023-03-21T07:32:24.882Z,2.95
2023-03-21T07:34:51.529Z,2.84
2023-03-21T07:37:18.197Z,2.95
2023-03-21T07:39:44.843Z,2.71
2023-03-21T07:42:11.488Z,2.78
2023-03-21T07:44:38.124Z,2.84
2023-03-21T07:47:05.386Z,2.89
2023-03-21T07:49:32.139Z,3.41
2023-03-21T07:51:58.775Z,3.71
2023-03-21T07:54:25.518Z,3.69
2023-03-21T07:56:52.168Z,3.60
2023-03-21T07:59:18.818Z,3.61
2023-03-21T08:01:45.439Z,3.86
2023-03-21T08:04:12.076Z,3.95
2023-03-21T08:06:38.694Z,3.73
2023-03-21T08:09:05.406Z,3.64
2023-03-21T08:11:32.032Z,3.84
2023-03-21T08:13:59.498Z,3.31
2023-03-21T08:16:26.264Z,3.03
2023-03-21T08:18:52.934Z,2.43
2023-03-21T08:21:19.578Z,2.85
2023-03-21T08:23:46.644Z,2.75
2023-03-21T08:26:13.279Z,2.84
2023-03-21T08:28:39.925Z,2.95
2023-03-21T08:31:07.694Z,3.05
2023-03-21T08:33:34.359Z,3.03
2023-03-21T08:36:01.046Z,3.14
2023-03-21T08:38:27.686Z,2.90
2023-03-21T08:40:54.439Z,2.94
2023-03-21T08:43:21.100Z,2.79
2023-03-21T08:45:47.729Z,2.72
2023-03-21T08:48:14.419Z,2.65
2023-03-21T08:50:41.097Z,2.87
2023-03-21T08:53:07.756Z,3.00
2023-03-21T08:55:34.400Z,3.08
2023-03-21T08:58:01.115Z,3.04
2023-03-21T09:00:27.910Z,3.19
2023-03-21T09:02:54.576Z,3.26
2023-03-21T09:05:21.695Z,2.88
2023-03-21T09:07:48.330Z,3.20
2023-03-21T09:10:21.954Z,3.01
2023-03-21T09:12:52.612Z,3.05
2023-03-21T09:15:19.340Z,2.85
2023-03-21T09:17:45.972Z,2.70
2023-03-21T09:20:13.134Z,2.68
2023-03-21T09:22:41.965Z,2.51
2023-03-21T09:25:09.434Z,2.58
2023-03-21T09:27:36.657Z,2.86
2023-03-21T09:30:03.868Z,3.19
2023-03-21T09:32:30.488Z,3.23
2023-03-21T09:34:57.161Z,3.50
2023-03-21T09:37:23.808Z,3.28
2023-03-21T09:39:50.441Z,2.96
2023-03-21T09:42:35.207Z,2.60
2023-03-21T09:45:10.332Z,2.74
2023-03-21T09:47:45.805Z,3.59
2023-03-21T09:50:15.442Z,3.90
2023-03-21T09:53:00.391Z,4.20
2023-03-21T09:55:31.432Z,4.07
2023-03-21T09:58:26.717Z,4.31
2023-03-21T10:00:59.403Z,4.10
2023-03-21T10:03:32.220Z,4.00
2023-03-21T10:05:58.926Z,4.14
2023-03-21T10:08:26.692Z,4.32
2023-03-21T10:10:55.238Z,4.11
2023-03-21T10:13:26.531Z,4.16
2023-03-21T10:15:56.772Z,3.97
2023-03-21T10:18:24.885Z,3.82
2023-03-21T10:20:51.518Z,3.85
2023-03-21T10:23:19.796Z,3.91
2023-03-21T10:25:51.471Z,3.92
2023-03-21T10:28:20.610Z,3.51
2023-03-21T10:30:53.890Z,3.22
2023-03-21T10:33:27.806Z,3.16
2023-03-21T10:35:59.875Z,3.17
2023-03-21T10:38:26.582Z,3.53
2023-03-21T10:40:53.419Z,4.16
2023-03-21T10:43:25.955Z,4.15
2023-03-21T10:45:53.149Z,4.27
2023-03-21T10:48:20.049Z,4.26
2023-03-21T10:50:51.874Z,4.08
2023-03-21T10:53:29.731Z,4.01
2023-03-21T10:55:57.659Z,3.58
2023-03-21T10:58:29.177Z,3.49
2023-03-21T11:01:06.367Z,3.29
2023-03-21T11:03:32.888Z,3.71
2023-03-21T11:06:06.369Z,3.65
2023-03-21T11:08:38.496Z,3.52
2023-03-21T11:11:09.511Z,3.51
2023-03-21T11:13:43.493Z,3.31
2023-03-21T11:16:11.099Z,3.51
2023-03-21T11:18:45.300Z,4.02
2023-03-21T11:21:12.866Z,3.82
2023-03-21T11:23:45.935Z,4.17
2023-03-21T11:26:26.505Z,4.32
2023-03-21T11:28:53.128Z,4.04
2023-03-21T11:31:19.918Z,4.19
2023-03-21T11:33:55.647Z,4.16
2023-03-21T11:36:22.153Z,4.24
2023-03-21T11:38:50.501Z,4.54
2023-03-21T11:41:28.810Z,4.60
2023-03-21T11:43:55.447Z,4.68
2023-03-21T11:46:29.232Z,4.62
2023-03-21T11:48:56.305Z,4.52
2023-03-21T11:51:37.763Z,4.53
2023-03-21T11:54:18.033Z,4.82
2023-03-21T11:56:46.576Z,4.96
2023-03-21T11:59:21.714Z,4.84
2023-03-21T12:02:13.294Z,4.65
2023-03-21T12:04:58.882Z,4.56
2023-03-21T12:07:27.876Z,4.72
2023-03-21T12:10:01.903Z,4.40
2023-03-21T12:12:50.314Z,4.44
2023-03-21T12:15:27.977Z,4.26
2023-03-21T12:18:26.887Z,4.60
2023-03-21T12:20:55.012Z,4.39
2023-03-21T12:23:29.520Z,4.79
2023-03-21T12:26:14.059Z,4.77
2023-03-21T12:28:46.589Z,3.83
2023-03-21T12:31:50.793Z,3.32
2023-03-21T12:34:46.325Z,2.97
2023-03-21T12:37:35.299Z,3.16
2023-03-21T12:40:13.946Z,3.24
2023-03-21T12:42:50.851Z,3.81
2023-03-21T12:45:26.130Z,3.67
2023-03-21T12:47:57.606Z,3.98
2023-03-21T12:50:31.982Z,3.79
2023-03-21T12:53:01.436Z,3.12
2023-03-21T12:55:29.541Z,2.76
2023-03-21T12:58:00.508Z,3.39
2023-03-21T13:00:45.508Z,4.43
2023-03-21T13:03:20.922Z,4.23
2023-03-21T13:05:57.246Z,3.89
2023-03-21T13:08:47.047Z,4.45
2023-03-21T13:11:15.702Z,4.17
2023-03-21T13:13:46.428Z,3.57
2023-03-21T13:16:32.439Z,3.38
2023-03-21T13:19:21.383Z,3.54
2023-03-21T13:22:10.556Z,3.24
2023-03-21T13:24:49.202Z,4.37
2023-03-21T13:27:35.131Z,3.93
2023-03-21T13:30:07.373Z,3.90
2023-03-21T13:32:41.910Z,3.39
2023-03-21T13:35:22.367Z,3.74
2023-03-21T13:37:53.073Z,3.43
2023-03-21T13:40:27.557Z,3.28
2023-03-21T13:42:56.273Z,3.25
2023-03-21T13:45:33.593Z,2.70
2023-03-21T13:48:03.679Z,2.39
2023-03-21T13:50:34.980Z,2.35
2023-03-21T13:53:04.211Z,2.45
2023-03-21T13:55:31.383Z,2.47
2023-03-21T13:57:58.170Z,2.43
2023-03-21T14:00:29.400Z,2.56
2023-03-21T14:03:09.395Z,2.87
2023-03-21T14:05:36.234Z,3.01
2023-03-21T14:08:15.301Z,2.50
2023-03-21T14:10:45.587Z,2.23
2023-03-21T14:13:15.659Z,1.98
2023-03-21T14:15:54.947Z,2.16
2023-03-21T14:18:28.051Z,2.27
2023-03-21T14:21:23.590Z,2.02
2023-03-21T14:24:07.158Z,2.18
2023-03-21T14:26:41.075Z,1.98
2023-03-21T14:29:22.924Z,2.15
2023-03-21T14:31:52.250Z,2.05
2023-03-21T14:34:18.944Z,2.11
2023-03-21T14:36:51.637Z,2.00
2023-03-21T14:39:23.384Z,2.13
2023-03-21T14:41:54.561Z,2.10
2023-03-21T14:44:53.055Z,2.39
2023-03-21T14:47:25.609Z,2.48
2023-03-21T14:49:52.254Z,2.24
2023-03-21T14:52:24.390Z,2.04
2023-03-21T14:54:51.016Z,2.26
2023-03-21T14:57:22.480Z,3.17
2023-03-21T14:59:51.220Z,3.62
2023-03-21T15:02:23.298Z,3.28
2023-03-21T15:04:55.300Z,3.91
2023-03-21T15:07:32.497Z,4.75
2023-03-21T15:10:00.945Z,8.40
2023-03-21T15:12:27.598Z,7.22
2023-03-21T15:14:54.231Z,3.96
2023-03-21T15:17:20.918Z,3.24
2023-03-21T15:19:47.562Z,4.15
2023-03-21T15:22:30.577Z,3.03
2023-03-21T15:25:00.411Z,2.33
2023-03-21T15:27:27.240Z,2.66
2023-03-21T15:29:53.906Z,2.75
2023-03-21T15:32:22.075Z,2.53
2023-03-21T15:34:49.045Z,2.56
2023-03-21T15:37:23.726Z,2.25
2023-03-21T15:39:50.373Z,2.41
2023-03-21T15:42:39.627Z,1.84
2023-03-21T15:45:22.779Z,1.53
2023-03-21T15:47:49.393Z,1.65
2023-03-21T15:50:28.944Z,1.61
2023-03-21T15:52:55.655Z,1.54
2023-03-21T15:55:28.673Z,1.58
2023-03-21T15:57:59.055Z,1.44
2023-03-21T16:00:38.900Z,1.55
2023-03-21T16:03:13.007Z,1.55
2023-03-21T16:05:39.697Z,1.35
2023-03-21T16:08:26.356Z,1.37
2023-03-21T16:10:52.999Z,1.49
2023-03-21T16:13:19.686Z,1.57
2023-03-21T16:15:46.329Z,1.58
2023-03-21T16:18:14.516Z,1.82
2023-03-21T16:20:43.056Z,1.76
2023-03-21T16:23:11.421Z,2.34
2023-03-21T16:25:38.126Z,3.06
2023-03-21T16:28:05.037Z,3.31
2023-03-21T16:30:31.711Z,3.29
2023-03-21T16:32:58.359Z,3.40
2023-03-21T16:35:25.024Z,2.58
2023-03-21T16:37:51.712Z,1.83
2023-03-21T16:40:24.946Z,2.05
2023-03-21T16:42:51.597Z,1.96
2023-03-21T16:45:18.233Z,1.84
2023-03-21T16:47:44.902Z,1.83
2023-03-21T16:50:21.647Z,2.15
2023-03-21T16:52:48.636Z,1.92
2023-03-21T16:55:15.316Z,1.82
2023-03-21T16:57:42.018Z,1.95
2023-03-21T17:00:09.003Z,2.13
2023-03-21T17:02:35.659Z,2.14
2023-03-21T17:05:03.793Z,2.09
2023-03-21T17:07:31.447Z,2.01
2023-03-21T17:09:58.083Z,2.12
2023-03-21T17:12:24.704Z,2.14
2023-03-21T17:14:51.356Z,1.98
2023-03-21T17:17:17.999Z,2.05
2023-03-21T17:19:44.641Z,2.14
2023-03-21T17:22:14.415Z,1.86
2023-03-21T17:24:41.287Z,2.05
2023-03-21T17:27:08.011Z,2.58
2023-03-21T17:29:34.708Z,2.69
2023-03-21T17:32:01.420Z,2.67
2023-03-21T17:34:28.056Z,2.49
2023-03-21T17:36:55.845Z,3.14
2023-03-21T17:39:24.349Z,2.70
2023-03-21T17:41:51.213Z,2.70
2023-03-21T17:44:18.443Z,2.74
2023-03-21T17:46:45.217Z,2.51
2023-03-21T17:49:13.646Z,2.47
2023-03-21T17:51:40.522Z,2.98
2023-03-21T17:54:07.228Z,4.03
2023-03-21T17:56:34.126Z,15.55
2023-03-21T17:59:02.403Z,6.10
2023-03-21T18:01:30.311Z,7.94
2023-03-21T18:03:57.470Z,6.18
2023-03-21T18:06:25.201Z,3.12
2023-03-21T18:08:52.848Z,2.59
2023-03-21T18:11:20.014Z,2.45
2023-03-21T18:13:46.682Z,2.58
2023-03-21T18:16:14.941Z,3.00
2023-03-21T18:18:41.649Z,4.05
2023-03-21T18:21:08.268Z,3.88
2023-03-21T18:23:34.912Z,3.75
2023-03-21T18:26:01.572Z,3.95
2023-03-21T18:28:28.224Z,4.17
2023-03-21T18:31:16.778Z,3.62
2023-03-21T18:33:41.603Z,3.09
2023-03-21T18:36:09.434Z,3.35
2023-03-21T18:38:36.465Z,3.48
2023-03-21T18:41:03.203Z,3.66
2023-03-21T18:46:16.632Z,3.34
2023-03-21T18:48:43.428Z,3.80
2023-03-21T18:51:10.085Z,3.13
2023-03-21T18:53:36.711Z,3.28
2023-03-21T18:56:03.357Z,3.96
2023-03-21T18:58:32.701Z,3.75
2023-03-21T19:00:59.505Z,3.89
2023-03-21T19:03:36.028Z,3.82
2023-03-21T19:06:03.689Z,6.26
2023-03-21T19:08:30.786Z,5.35
2023-03-21T19:11:00.092Z,4.81
2023-03-21T19:13:28.243Z,4.15
2023-03-21T19:15:55.826Z,4.28
2023-03-21T19:18:41.482Z,4.50
2023-03-21T19:21:09.468Z,7.80
2023-03-21T19:24:07.621Z,5.67
2023-03-21T19:26:22.779Z,5.57
2023-03-21T19:28:49.411Z,5.31
2023-03-21T19:31:16.104Z,4.64
2023-03-21T19:33:42.854Z,8.76
2023-03-21T19:36:18.389Z,8.81
2023-03-21T19:38:48.380Z,14.68
2023-03-21T19:41:15.031Z,9.67
2023-03-21T19:43:52.908Z,7.93
2023-03-21T19:46:20.161Z,7.65
2023-03-21T19:48:47.061Z,6.21
2023-03-21T19:51:27.512Z,5.65
2023-03-21T19:53:54.702Z,4.61
2023-03-21T19:56:24.635Z,4.46
2023-03-21T19:58:53.514Z,4.03
2023-03-21T20:01:20.280Z,3.75
2023-03-21T20:03:46.966Z,3.76
2023-03-21T20:06:13.597Z,3.72
2023-03-21T20:11:26.832Z,3.87
2023-03-21T20:13:53.473Z,3.94
2023-03-21T20:16:20.650Z,3.49
2023-03-21T20:18:47.567Z,3.68
2023-03-21T20:21:17.876Z,3.81
2023-03-21T20:23:45.010Z,4.07
2023-03-21T20:26:13.371Z,3.96
2023-03-21T20:28:53.787Z,4.09
2023-03-21T20:31:26.366Z,4.83
2023-03-21T20:33:53.175Z,4.98
2023-03-21T20:36:38.028Z,4.86
2023-03-21T20:39:05.802Z,5.70
2023-03-21T20:41:32.407Z,3.96
2023-03-21T20:44:39.190Z,3.60
2023-03-21T20:46:45.703Z,3.51
2023-03-21T20:49:13.294Z,3.77
2023-03-21T20:54:26.851Z,3.19
2023-03-21T20:56:53.502Z,3.72
2023-03-21T20:59:26.432Z,3.31
2023-03-21T21:01:55.494Z,3.44
2023-03-21T21:04:23.046Z,3.05
2023-03-21T21:06:53.998Z,3.33
2023-03-21T21:09:20.644Z,3.56
2023-03-21T21:12:06.173Z,3.95
2023-03-21T21:14:33.879Z,3.76
2023-03-21T21:17:04.902Z,3.50
2023-03-21T21:19:34.796Z,3.81
2023-03-21T21:22:01.521Z,3.53
2023-03-21T21:24:28.183Z,3.63
2023-03-21T21:26:54.839Z,3.45
2023-03-21T21:29:21.492Z,3.42
2023-03-21T21:31:48.506Z,3.34
2023-03-21T21:34:15.620Z,2.94
2023-03-21T21:36:42.815Z,3.08
2023-03-21T21:39:09.500Z,2.83
2023-03-21T21:41:36.156Z,2.76
2023-03-21T21:44:02.817Z,2.82
2023-03-21T21:46:29.530Z,3.16
2023-03-21T21:48:56.236Z,3.31
2023-03-21T21:51:22.878Z,3.40
2023-03-21T21:53:49.536Z,3.48
2023-03-21T21:56:16.176Z,3.11
2023-03-21T21:58:42.814Z,2.84
2023-03-21T22:01:09.633Z,3.01
2023-03-21T22:03:36.320Z,3.19
2023-03-21T22:06:03.075Z,3.15
2023-03-21T22:08:29.915Z,3.35
2023-03-21T22:10:56.615Z,3.20
2023-03-21T22:13:23.280Z,3.32
2023-03-21T22:15:50.136Z,3.74
2023-03-21T22:18:16.814Z,3.61
2023-03-21T22:20:43.908Z,3.11
2023-03-21T22:23:10.612Z,2.87
2023-03-21T22:25:37.373Z,3.16
2023-03-21T22:28:04.076Z,2.89
2023-03-21T22:30:30.785Z,2.89
2023-03-21T22:33:08.930Z,2.76
2023-03-21T22:35:36.164Z,2.56
2023-03-21T22:38:02.844Z,2.27
2023-03-21T22:40:29.489Z,2.53
2023-03-21T22:42:56.146Z,2.54
2023-03-21T22:45:22.770Z,2.32
2023-03-21T22:47:49.512Z,2.55
2023-03-21T22:50:16.227Z,2.51
2023-03-21T22:52:42.872Z,2.65
2023-03-21T22:55:09.593Z,2.51
2023-03-21T22:57:36.247Z,2.67
2023-03-21T23:00:03.829Z,2.50
2023-03-21T23:02:30.478Z,2.74
2023-03-21T23:04:57.106Z,2.56
2023-03-21T23:07:23.764Z,2.44
2023-03-21T23:09:50.418Z,2.53
2023-03-21T23:12:17.061Z,2.58
2023-03-21T23:14:43.702Z,2.62
2023-03-21T23:17:10.378Z,2.72
2023-03-21T23:19:38.651Z,2.49
2023-03-21T23:22:06.555Z,2.84
2023-03-21T23:24:33.206Z,2.41
2023-03-21T23:26:59.844Z,2.62
2023-03-21T23:29:26.512Z,2.59
2023-03-21T23:31:53.184Z,2.59
2023-03-21T23:34:19.859Z,2.35
2023-03-21T23:36:46.738Z,2.36
2023-03-21T23:39:13.384Z,2.24
2023-03-21T23:41:40.019Z,2.17
2023-03-21T23:44:06.688Z,2.33
2023-03-21T23:46:33.387Z,2.24
2023-03-21T23:49:00.015Z,1.89
2023-03-21T23:51:26.649Z,1.94
2023-03-21T23:53:53.305Z,2.08
2023-03-21T23:56:21.089Z,1.95
2023-03-21T23:58:47.792Z,1.91
